Time;durP1;ratioP1;P1;durP2;ratioP2;P2;SDS_P1;SDS_P2;PMS_P1;PMS_P2;Temp;Humidity;BMP_temperature;BMP_pressure;BME280_temperature;BME280_humidity;BME280_pressure;Samples;Min_cycle;Max_cycle;Signal;HPM_P1;HPM_P2
2022/10/04 00:01:59;;;;;;;3.25;1.07;;;;;;;11.48;78.81;150538.91;1754113;81;21094;-62
2022/10/04 00:04:36;;;;;;;2.72;1.15;;;;;;;11.49;78.70;150541.50;1754558;80;21868;-62
2022/10/04 00:07:12;;;;;;;4.07;1.07;;;;;;;11.51;78.56;150545.42;1746965;81;21561;-60
2022/10/04 00:09:57;;;;;;;3.62;1.27;;;;;;;11.51;78.42;150546.73;1715369;81;21024;-62
2022/10/04 00:12:31;;;;;;;5.67;1.00;;;;;;;11.53;78.40;150551.94;1714300;81;20989;-62
2022/10/04 00:15:03;;;;;;;8.65;1.27;;;;;;;11.54;78.66;150553.20;1714941;81;20976;-62
2022/10/04 00:17:34;;;;;;;4.22;1.10;;;;;;;11.53;78.78;150550.61;1712069;81;21042;-62
2022/10/04 00:20:00;;;;;;;5.85;1.52;;;;;;;11.54;78.94;150553.20;1715008;81;21672;-62
2022/10/04 00:22:30;;;;;;;2.35;1.00;;;;;;;11.55;78.82;150555.80;1718097;81;21040;-62
2022/10/04 00:25:13;;;;;;;2.10;1.10;;;;;;;11.57;78.83;150560.98;1714669;81;21056;-61
2022/10/04 00:28:01;;;;;;;2.58;1.00;;;;;;;11.58;79.10;150563.58;1714246;81;21015;-61
2022/10/04 00:30:37;;;;;;;3.15;1.05;;;;;;;11.57;79.66;150560.98;1705507;81;21151;-62
2022/10/04 00:33:04;;;;;;;3.35;1.10;;;;;;;11.55;79.85;150557.12;1703456;82;21131;-62
2022/10/04 00:35:37;;;;;;;4.97;1.12;;;;;;;11.53;79.70;150550.61;1696748;82;20981;-61
2022/10/04 00:38:14;;;;;;;3.98;0.88;;;;;;;11.56;79.45;150558.39;1695426;82;21498;-61
2022/10/04 00:41:00;;;;;;;1.75;0.90;;;;;;;11.59;78.74;150566.17;1696382;82;21062;-61
2022/10/04 00:43:42;;;;;;;1.62;1.15;;;;;;;11.62;78.12;150574.02;1704244;82;21156;-60
2022/10/04 00:46:19;;;;;;;3.52;0.75;;;;;;;11.66;77.89;150584.39;1707204;82;21381;-61
2022/10/04 00:48:52;;;;;;;2.12;0.90;;;;;;;11.69;77.67;150592.17;1697014;82;21058;-61
2022/10/04 00:51:31;;;;;;;1.70;0.90;;;;;;;11.72;77.26;150598.69;1700070;82;20925;-61
2022/10/04 00:54:12;;;;;;;2.70;0.78;;;;;;;11.76;77.27;150609.06;1698976;82;21518;-61
2022/10/04 00:56:49;;;;;;;1.80;1.20;;;;;;;11.77;77.29;150611.66;1719065;82;21493;-61
2022/10/04 00:59:30;;;;;;;1.67;1.05;;;;;;;11.75;77.35;150607.75;1703004;82;21096;-75
2022/10/04 01:02:25;;;;;;;3.87;1.10;;;;;;;11.75;77.48;150607.75;1709727;82;21080;-76
2022/10/04 01:05:11;;;;;;;1.85;1.00;;;;;;;11.79;77.65;150615.53;1699156;82;21507;-76
2022/10/04 01:07:46;;;;;;;2.22;1.20;;;;;;;11.77;77.86;150610.34;1694165;82;21669;-78
2022/10/04 01:10:28;;;;;;;2.77;1.10;;;;;;;11.74;78.19;150605.16;1700181;82;21094;-75
2022/10/04 01:13:20;;;;;;;0.95;0.80;;;;;;;11.70;78.38;150594.78;1695178;81;21222;-76
2022/10/04 01:16:16;;;;;;;2.70;0.90;;;;;;;11.68;78.45;150588.25;1706332;82;21035;-76
2022/10/04 01:18:43;;;;;;;2.67;0.70;;;;;;;11.65;78.47;150581.80;1692846;82;21057;-73
2022/10/04 01:21:25;;;;;;;4.45;0.90;;;;;;;11.61;78.60;150571.41;1695971;82;21053;-76
2022/10/04 01:24:01;;;;;;;3.22;1.05;;;;;;;11.56;78.65;150559.72;1704502;82;22161;-76
2022/10/04 01:26:36;;;;;;;3.60;0.70;;;;;;;11.53;78.94;150550.61;1700202;82;21136;-76
2022/10/04 01:29:13;;;;;;;2.95;1.02;;;;;;;11.46;79.28;150533.72;1710424;82;21188;-76
2022/10/04 01:31:49;;;;;;;6.28;1.07;;;;;;;11.39;79.71;150516.88;1705092;82;21083;-76
2022/10/04 01:34:21;;;;;;;3.40;1.12;;;;;;;11.34;80.20;150503.86;1701783;82;21683;-76
2022/10/04 01:36:50;;;;;;;2.87;1.00;;;;;;;11.26;80.56;150484.37;1707189;82;21181;-73
2022/10/04 01:39:18;;;;;;;7.08;1.10;;;;;;;11.20;80.93;150467.53;1712370;82;21059;-76
2022/10/04 01:42:13;;;;;;;3.50;1.10;;;;;;;11.16;81.23;150459.75;1703810;82;21080;-61
2022/10/04 01:44:49;;;;;;;3.85;0.90;;;;;;;11.10;81.59;150442.86;1704674;82;21116;-61
2022/10/04 01:47:35;;;;;;;;;;;;;;;11.02;81.93;150424.66;1706388;82;21088;-60
2022/10/04 01:50:12;;;;;;;2.55;0.98;;;;;;;10.95;82.25;150405.22;1706931;82;21124;-61
2022/10/04 01:53:01;;;;;;;3.35;1.00;;;;;;;10.89;82.61;150392.22;1711230;82;21514;-61
2022/10/04 01:55:35;;;;;;;3.15;0.82;;;;;;;10.84;82.96;150379.23;1717446;81;21301;-61
2022/10/04 01:58:26;;;;;;;1.80;0.83;;;;;;;10.77;83.30;150361.09;1709481;82;21023;-61
2022/10/04 02:01:08;;;;;;;1.55;0.90;;;;;;;10.69;83.71;150341.61;1700036;83;21065;-75
2022/10/04 02:03:40;;;;;;;3.72;1.05;;;;;;;10.65;84.25;150329.92;1661001;82;21139;-74
2022/10/04 02:06:09;;;;;;;3.12;1.20;;;;;;;10.60;84.59;150319.55;1705811;82;21089;-76
2022/10/04 02:08:39;;;;;;;2.40;1.15;;;;;;;10.57;84.95;150311.77;1705202;82;21048;-76
2022/10/04 02:11:06;;;;;;;2.42;1.05;;;;;;;10.55;85.11;150306.58;1701746;82;21122;-76
2022/10/04 02:13:38;;;;;;;1.85;1.00;;;;;;;10.53;85.41;150301.39;1694895;82;21510;-75
2022/10/04 02:16:10;;;;;;;2.37;1.20;;;;;;;10.49;85.71;150290.97;1706280;82;21233;-75
2022/10/04 02:18:38;;;;;;;4.50;1.40;;;;;;;10.42;86.04;150272.83;1703824;82;21026;-76
2022/10/04 02:21:06;;;;;;;3.33;1.20;;;;;;;10.37;86.39;150259.81;1705936;82;21084;-75
2022/10/04 02:23:35;;;;;;;2.90;1.20;;;;;;;10.35;86.78;150255.91;1718130;82;21102;-77
2022/10/04 02:26:06;;;;;;;5.20;1.30;;;;;;;10.32;87.03;150249.44;1652559;84;21109;-75
2022/10/04 02:28:34;;;;;;;5.47;1.27;;;;;;;10.30;87.44;150244.25;1707116;82;21276;-76
2022/10/04 02:33:49;;;;;;;2.40;1.10;;;;;;;10.22;88.00;150223.47;1691138;82;21067;-61
2022/10/04 02:36:16;;;;;;;3.27;1.15;;;;;;;10.20;88.60;150218.28;1700836;82;21060;-59
2022/10/04 02:38:59;;;;;;;3.08;1.00;;;;;;;10.15;89.07;150206.59;1701971;80;21071;-59
2022/10/04 02:41:42;;;;;;;2.17;1.05;;;;;;;10.14;89.42;150202.73;1705295;82;21257;-60
2022/10/04 02:44:27;;;;;;;1.57;1.00;;;;;;;10.11;89.83;150194.95;1705189;82;21057;-60
2022/10/04 02:47:19;;;;;;;2.00;1.20;;;;;;;10.09;90.16;150189.77;1712202;82;21043;-60
2022/10/04 02:50:00;;;;;;;3.40;1.20;;;;;;;10.09;90.65;150189.77;1708028;82;21027;-73
2022/10/04 02:52:40;;;;;;;2.85;1.12;;;;;;;10.07;91.05;150184.59;1707852;82;21063;-75
2022/10/04 02:55:23;;;;;;;3.15;1.30;;;;;;;10.04;91.37;150179.34;1709790;81;21874;-60
2022/10/04 02:57:51;;;;;;;5.80;1.20;;;;;;;10.03;91.90;150176.75;1707876;82;21040;-61
2022/10/04 03:00:22;;;;;;;2.65;1.10;;;;;;;9.99;92.27;150166.39;1704850;82;21064;-62
2022/10/04 03:03:18;;;;;;;4.78;1.62;;;;;;;9.96;92.82;150158.61;1700734;82;21030;-62
2022/10/04 03:05:59;;;;;;;2.62;1.27;;;;;;;9.92;93.27;150148.25;1722618;82;21027;-76
2022/10/04 03:08:29;;;;;;;5.15;1.50;;;;;;;9.89;93.96;150140.47;1716915;81;21430;-72
2022/10/04 03:10:58;;;;;;;2.17;1.10;;;;;;;9.87;94.18;150135.28;1693540;82;21446;-77
2022/10/04 03:13:25;;;;;;;2.67;1.20;;;;;;;9.85;94.43;150130.11;1698192;82;21473;-74
2022/10/04 03:15:52;;;;;;;5.30;1.65;;;;;;;9.85;94.78;150131.38;1714902;82;21289;-76
2022/10/04 03:18:19;;;;;;;5.05;1.42;;;;;;;9.84;95.04;150128.78;1712223;81;21094;-75
2022/10/04 03:20:46;;;;;;;4.17;1.75;;;;;;;9.83;95.42;150124.87;1693515;82;21145;-77
2022/10/04 03:23:14;;;;;;;2.45;1.17;;;;;;;9.81;95.47;150119.69;1698086;82;21080;-74
2022/10/04 03:26:33;;;;;;;1.95;1.37;;;;;;;9.78;95.94;150111.91;1714642;82;21505;-75
2022/10/04 03:29:01;;;;;;;3.83;1.40;;;;;;;9.75;96.27;150105.45;1707757;82;21092;-75
2022/10/04 03:31:28;;;;;;;3.45;1.65;;;;;;;9.69;96.67;150091.19;1700590;82;20980;-60
2022/10/04 03:33:55;;;;;;;2.47;1.30;;;;;;;9.66;97.02;150083.41;1698941;82;21246;-76
2022/10/04 03:36:23;;;;;;;3.90;1.30;;;;;;;9.62;97.49;150073.05;1697219;82;21476;-73
2022/10/04 03:38:53;;;;;;;4.72;1.70;;;;;;;9.58;97.89;150062.62;1713140;82;21032;-76
2022/10/04 03:41:21;;;;;;;6.85;1.62;;;;;;;9.56;98.39;150057.45;1706081;82;21055;-76
2022/10/04 03:43:51;;;;;;;1.82;1.25;;;;;;;9.53;98.55;150049.67;1726166;82;21079;-76
2022/10/04 03:46:17;;;;;;;3.40;1.50;;;;;;;9.51;98.84;150045.81;1716535;82;21236;-76
2022/10/04 03:48:49;;;;;;;4.28;1.87;;;;;;;9.50;99.19;150041.91;1701054;81;21538;-60
2022/10/04 03:51:25;;;;;;;3.50;1.42;;;;;;;9.43;99.39;150026.36;1713064;82;21039;-76
2022/10/04 03:54:00;;;;;;;5.55;2.00;;;;;;;9.39;99.77;150015.94;1713197;82;21043;-75
2022/10/04 03:56:34;;;;;;;4.62;1.40;;;;;;;9.35;100.00;150005.58;1693092;82;21056;-61
2022/10/04 03:59:04;;;;;;;5.97;1.72;;;;;;;9.30;100.00;149993.94;1710661;82;21975;-61
2022/10/04 04:01:47;;;;;;;3.33;1.70;;;;;;;9.26;100.00;149982.27;1695461;82;21632;-61
2022/10/04 04:04:22;;;;;;;3.37;1.65;;;;;;;9.22;100.00;149971.91;1730365;82;21521;-60
2022/10/04 04:06:58;;;;;;;3.65;2.17;;;;;;;9.18;100.00;149962.81;1695035;82;21042;-60
2022/10/04 04:10:04;;;;;;;2.87;1.65;;;;;;;9.15;100.00;149955.03;1711229;82;20999;-60
2022/10/04 04:12:40;;;;;;;6.67;1.82;;;;;;;9.11;100.00;149945.95;1708933;82;22218;-60
2022/10/04 04:15:10;;;;;;;4.70;2.00;;;;;;;9.10;100.00;149943.36;1713489;82;21076;-61
2022/10/04 04:17:52;;;;;;;2.85;1.70;;;;;;;9.11;100.00;149944.69;1703940;82;21080;-61
2022/10/04 04:20:38;;;;;;;2.65;1.90;;;;;;;9.13;100.00;149951.12;1702924;82;21069;-61
2022/10/04 04:23:17;;;;;;;2.42;1.77;;;;;;;9.13;100.00;149951.12;1702388;82;21102;-61
2022/10/04 04:25:46;;;;;;;4.72;1.82;;;;;;;9.18;100.00;149962.81;1718689;82;22309;-60
2022/10/04 04:28:35;;;;;;;2.87;1.82;;;;;;;9.23;100.00;149974.50;1690966;82;21130;-61
2022/10/04 04:31:22;;;;;;;2.30;1.70;;;;;;;9.26;100.00;149983.53;1729084;80;22138;-61
2022/10/04 04:34:01;;;;;;;5.75;2.10;;;;;;;9.27;100.00;149986.13;1753790;80;21195;-61
2022/10/04 04:36:31;;;;;;;4.85;2.00;;;;;;;9.25;100.00;149980.94;1754602;81;21492;-61
2022/10/04 04:42:04;;;;;;;6.60;2.00;;;;;;;9.24;100.00;149978.36;1753958;80;21087;-61
2022/10/04 04:44:32;;;;;;;6.15;2.20;;;;;;;9.26;100.00;149982.27;1752471;81;20979;-61
2022/10/04 04:46:59;;;;;;;6.90;2.05;;;;;;;9.32;100.00;149997.81;1754104;81;20975;-61
2022/10/04 04:49:28;;;;;;;3.22;1.92;;;;;;;9.46;100.00;150032.81;1754164;81;20979;-60
2022/10/04 04:51:56;;;;;;;6.85;2.17;;;;;;;9.64;100.00;150078.22;1754087;80;21222;-72
2022/10/04 04:54:25;;;;;;;2.37;2.00;;;;;;;9.84;99.55;150127.52;1724605;81;20984;-75
2022/10/04 04:56:53;;;;;;;7.37;1.87;;;;;;;10.04;98.50;150179.34;1754377;80;21084;-73
2022/10/04 04:59:20;;;;;;;8.55;1.80;;;;;;;10.26;97.17;150233.84;1724788;81;21007;-75
2022/10/04 05:01:48;;;;;;;7.92;2.08;;;;;;;10.48;96.07;150288.38;1754490;80;21043;-72
2022/10/04 05:04:21;;;;;;;10.25;1.90;;;;;;;10.69;94.51;150340.30;1754518;81;21453;-76
2022/10/04 05:07:01;;;;;;;10.93;1.90;;;;;;;10.89;93.51;150392.22;1751524;80;21090;-72
2022/10/04 05:09:35;;;;;;;5.45;1.92;;;;;;;11.10;92.28;150444.14;1718220;81;21455;-76
2022/10/04 05:12:12;;;;;;;4.28;1.92;;;;;;;11.22;90.53;150472.72;1716212;81;21045;-72
2022/10/04 05:14:46;;;;;;;3.95;2.20;;;;;;;11.21;89.67;150470.12;1714100;81;21435;-74
2022/10/04 05:17:33;;;;;;;3.40;1.80;;;;;;;11.20;89.31;150468.81;1713681;81;21230;-75
2022/10/04 05:20:01;;;;;;;6.40;2.00;;;;;;;11.23;88.96;150475.31;1715456;81;21095;-75
2022/10/04 05:22:28;;;;;;;7.85;1.65;;;;;;;11.23;88.65;150476.59;1717977;81;21009;-73
2022/10/04 05:24:58;;;;;;;5.12;1.65;;;;;;;11.20;88.78;150468.81;1714374;81;21120;-77
2022/10/04 05:27:33;;;;;;;11.63;2.10;;;;;;;11.17;88.76;150462.34;1712991;81;21028;-74
2022/10/04 05:30:42;;;;;;;5.42;1.80;;;;;;;11.11;88.86;150446.73;1712760;81;21931;-77
2022/10/04 05:33:13;;;;;;;4.45;1.62;;;;;;;11.07;88.90;150435.08;1733442;81;21059;-73
2022/10/04 05:36:17;;;;;;;4.15;1.37;;;;;;;10.98;89.30;150414.28;1726177;81;21019;-75
2022/10/04 05:39:01;;;;;;;4.97;1.85;;;;;;;10.98;89.61;150413.00;1752851;81;21200;-76
2022/10/04 05:41:32;;;;;;;6.00;1.82;;;;;;;11.04;89.93;150428.58;1720399;81;21056;-72
2022/10/04 05:44:01;;;;;;;6.55;2.10;;;;;;;11.20;89.64;150467.53;1736896;80;21960;-74
2022/10/04 05:46:31;;;;;;;6.10;2.10;;;;;;;11.35;89.06;150506.44;1748291;81;21069;-72
2022/10/04 05:49:13;;;;;;;3.77;1.92;;;;;;;11.50;88.64;150542.81;1732178;81;21082;-76
2022/10/04 05:51:59;;;;;;;6.08;1.87;;;;;;;11.61;87.83;150571.41;1753968;80;21063;-74
2022/10/04 05:54:31;;;;;;;6.05;1.87;;;;;;;11.73;87.30;150602.56;1748947;81;21051;-76
2022/10/04 05:57:30;;;;;;;3.15;1.60;;;;;;;11.91;86.68;150646.73;1731555;81;21313;-75
2022/10/04 06:00:16;;;;;;;1.80;1.40;;;;;;;12.06;85.59;150683.16;1716330;81;21038;-73
2022/10/04 06:03:10;;;;;;;3.30;2.15;;;;;;;12.16;85.03;150710.44;1724130;81;21572;-74
2022/10/04 06:05:56;;;;;;;2.70;1.80;;;;;;;12.26;84.75;150735.09;1735693;81;21115;-73
2022/10/04 06:08:59;;;;;;;6.17;1.87;;;;;;;12.32;84.19;150750.72;1728898;81;21561;-74
2022/10/04 06:11:54;;;;;;;4.42;1.87;;;;;;;12.38;83.80;150765.02;1736788;80;20963;-75
2022/10/04 06:14:57;;;;;;;3.02;1.65;;;;;;;12.51;83.30;150796.17;1733024;81;21095;-73
2022/10/04 06:17:29;;;;;;;5.75;1.62;;;;;;;12.61;82.61;150822.19;1748217;81;21498;-75
2022/10/04 06:20:14;;;;;;;5.97;1.67;;;;;;;12.68;81.54;150840.37;1721261;81;21037;-74
2022/10/04 06:22:46;;;;;;;10.58;1.80;;;;;;;12.73;81.58;150852.08;1717340;81;21052;-73
2022/10/04 06:25:18;;;;;;;7.20;1.82;;;;;;;12.81;81.55;150871.53;1736729;81;21274;-74
2022/10/04 06:27:57;;;;;;;3.77;1.72;;;;;;;12.89;81.26;150893.64;1737090;81;21430;-74
2022/10/04 06:30:24;;;;;;;4.28;1.60;;;;;;;12.99;80.46;150917.06;1729031;81;20985;-74
2022/10/04 06:33:15;;;;;;;2.47;1.90;;;;;;;13.07;79.96;150936.56;1735306;81;21489;-72
2022/10/04 06:35:56;;;;;;;5.12;1.87;;;;;;;13.12;79.96;150949.56;1743466;80;21121;-75
2022/10/04 06:38:56;;;;;;;3.15;1.85;;;;;;;13.18;79.79;150966.47;1737116;81;22017;-73
2022/10/04 06:41:51;;;;;;;4.17;1.60;;;;;;;13.23;79.40;150976.86;1730359;81;21077;-74
2022/10/04 06:44:49;;;;;;;6.42;1.90;;;;;;;13.27;79.21;150987.25;1712935;81;20987;-74
2022/10/04 06:47:46;;;;;;;3.72;1.82;;;;;;;13.41;79.29;151023.69;1714420;82;21092;-72
2022/10/04 06:50:26;;;;;;;4.50;2.17;;;;;;;13.61;78.73;151074.42;1730471;81;21699;-74
2022/10/04 06:53:25;;;;;;;2.52;1.60;;;;;;;13.80;77.75;151119.92;1735611;81;21445;-72
2022/10/04 06:56:21;;;;;;;2.20;2.00;;;;;;;13.89;77.42;151143.38;1743157;81;21072;-71
2022/10/04 06:59:03;;;;;;;5.80;2.12;;;;;;;13.97;76.76;151164.16;1704044;81;21122;-74
2022/10/04 07:01:34;;;;;;;4.22;1.60;;;;;;;14.02;75.35;151177.16;1704399;82;21522;-73
2022/10/04 07:04:40;;;;;;;3.25;1.80;;;;;;;14.09;74.03;151192.81;1688027;84;21071;-73
2022/10/04 07:07:38;;;;;;;2.45;1.80;;;;;;;14.12;73.58;151200.59;1687686;84;21901;-75
2022/10/04 07:10:24;;;;;;;4.22;1.90;;;;;;;14.16;73.31;151211.00;1733817;81;20948;-72
2022/10/04 07:13:15;;;;;;;5.78;1.72;;;;;;;14.19;71.78;151218.81;1738935;81;21035;-74
2022/10/04 07:15:49;;;;;;;3.62;1.87;;;;;;;14.20;71.56;151220.13;1673257;84;21043;-73
2022/10/04 07:18:31;;;;;;;3.75;1.87;;;;;;;14.26;71.07;151237.05;1732257;81;21049;-75
2022/10/04 07:21:04;;;;;;;7.78;2.00;;;;;;;14.32;70.90;151252.66;1701469;82;21239;-74
2022/10/04 07:23:37;;;;;;;6.10;2.12;;;;;;;14.44;70.73;151281.25;1673327;84;21095;-63
2022/10/04 07:26:09;;;;;;;4.12;1.92;;;;;;;14.52;70.11;151302.11;1725958;81;21063;-62
2022/10/04 07:31:33;;;;;;;2.85;1.75;;;;;;;14.74;68.37;151356.81;1723607;81;21047;-62
2022/10/04 07:34:25;;;;;;;5.15;1.98;;;;;;;14.85;66.93;151385.42;1728869;80;21227;-61
2022/10/04 07:36:57;;;;;;;2.92;1.75;;;;;;;14.88;65.58;151391.94;1716623;81;21129;-62
2022/10/04 07:39:41;;;;;;;3.42;1.72;;;;;;;14.86;65.27;151388.03;1723837;81;21007;-63
2022/10/04 07:42:30;;;;;;;4.45;1.98;;;;;;;14.87;64.67;151389.34;1721770;81;21059;-62
2022/10/04 07:45:05;;;;;;;6.42;1.57;;;;;;;14.86;64.48;151386.75;1721048;81;21057;-62
2022/10/04 07:47:32;;;;;;;3.45;1.32;;;;;;;14.85;63.76;151385.42;1722182;81;21853;-61
2022/10/04 07:50:00;;;;;;;4.50;1.67;;;;;;;14.89;62.49;151395.83;1720752;81;21051;-62
2022/10/04 07:52:48;;;;;;;3.22;1.90;;;;;;;14.92;62.15;151402.34;1687593;81;21919;-74
2022/10/04 07:55:36;;;;;;;2.08;1.32;;;;;;;14.95;62.46;151408.88;1723939;81;21069;-62
2022/10/04 07:58:34;;;;;;;5.45;1.47;;;;;;;15.01;61.50;151425.75;1648626;82;21615;-62
2022/10/04 08:01:22;;;;;;;7.58;1.70;;;;;;;15.21;60.55;151475.23;1666074;84;21334;-61
2022/10/04 08:04:14;;;;;;;7.47;1.67;;;;;;;15.42;58.85;151527.31;1721065;81;21126;-61
2022/10/04 08:06:59;;;;;;;7.92;1.70;;;;;;;15.54;58.56;151557.27;1722569;81;22076;-62
2022/10/04 08:09:44;;;;;;;2.90;1.87;;;;;;;15.61;58.65;151576.81;1732861;81;21128;-61
2022/10/04 08:12:35;;;;;;;6.03;1.75;;;;;;;15.72;57.86;151604.16;1725908;81;21123;-62
2022/10/04 08:15:34;;;;;;;8.10;1.47;;;;;;;15.84;57.21;151632.84;1698338;83;39069;-61
2022/10/04 08:18:45;;;;;;;2.45;1.52;;;;;;;15.96;56.11;151664.13;1697664;83;21080;-62
2022/10/04 08:21:17;;;;;;;3.83;1.50;;;;;;;15.98;56.46;151669.33;1718913;81;21043;-60
2022/10/04 08:24:00;;;;;;;6.00;1.30;;;;;;;15.97;54.09;151666.72;1693139;83;21170;-63
2022/10/04 08:26:53;;;;;;;8.10;1.30;;;;;;;15.94;52.64;151657.64;1714693;82;21079;-61
2022/10/04 08:29:52;;;;;;;5.10;1.57;;;;;;;15.88;53.50;151643.25;1716091;81;20980;-60
2022/10/04 08:33:05;;;;;;;5.90;1.50;;;;;;;15.81;53.72;151625.03;1689794;83;21120;-61
2022/10/04 08:35:38;;;;;;;4.95;1.12;;;;;;;15.79;54.08;151619.78;1665888;84;21051;-62
2022/10/04 08:38:41;;;;;;;6.55;1.72;;;;;;;15.83;53.70;151631.52;1643104;85;21084;-62
2022/10/04 08:41:55;;;;;;;9.15;2.25;;;;;;;15.79;54.47;151619.78;1669646;84;21027;-61
2022/10/04 08:44:43;;;;;;;4.00;2.05;;;;;;;15.66;55.66;151588.55;1670008;83;21252;-61
2022/10/04 08:47:39;;;;;;;8.63;2.17;;;;;;;15.56;57.00;151562.47;1675247;84;21061;-62
2022/10/04 08:50:31;;;;;;;2.02;1.27;;;;;;;15.57;56.89;151565.08;1677447;84;21052;-61
2022/10/04 08:53:21;;;;;;;2.27;1.40;;;;;;;15.59;54.92;151571.61;1667773;84;21037;-60
2022/10/04 08:56:20;;;;;;;8.35;2.45;;;;;;;15.56;55.43;151563.80;1644732;84;21143;-61
2022/10/04 08:59:18;;;;;;;5.10;1.40;;;;;;;15.52;56.61;151553.39;1681699;84;21238;-67
2022/10/04 09:02:14;;;;;;;4.28;1.60;;;;;;;15.51;57.24;151549.47;1676233;84;21116;-66
2022/10/04 09:04:49;;;;;;;6.72;1.92;;;;;;;15.47;57.73;151541.66;1646793;85;21070;-67
2022/10/04 09:07:38;;;;;;;6.33;1.92;;;;;;;15.47;57.91;151541.66;1670266;84;21121;-64
2022/10/04 09:10:22;;;;;;;9.15;1.80;;;;;;;15.54;58.44;151557.27;1662354;84;21555;-64
2022/10/04 09:13:06;;;;;;;6.37;1.70;;;;;;;15.64;57.81;151583.34;1669636;84;21106;-65
2022/10/04 09:15:55;;;;;;;6.65;1.67;;;;;;;15.74;57.11;151609.36;1672125;84;21107;-65
2022/10/04 09:19:16;;;;;;;3.65;1.72;;;;;;;15.81;56.65;151626.31;1708307;82;22242;-64
2022/10/04 09:22:26;;;;;;;2.20;1.40;;;;;;;15.84;55.69;151632.84;1709504;82;21355;-65
2022/10/04 09:25:49;;;;;;;3.15;1.50;;;;;;;15.74;54.68;151609.36;1702300;82;21071;-64
2022/10/04 09:29:07;;;;;;;3.50;1.62;;;;;;;15.72;54.86;151604.16;1676665;83;22632;-76
2022/10/04 09:32:04;;;;;;;2.85;1.62;;;;;;;15.69;54.39;151596.34;1670410;83;21330;-70
2022/10/04 09:34:42;;;;;;;8.33;2.02;;;;;;;15.79;55.65;151619.78;1667467;84;21101;-62
2022/10/04 09:37:20;;;;;;;6.60;2.10;;;;;;;15.89;56.03;151645.91;1666408;84;21077;-61
2022/10/04 09:40:14;;;;;;;3.25;1.60;;;;;;;15.92;56.18;151653.70;1664652;84;21097;-63
2022/10/04 09:43:06;;;;;;;2.52;1.62;;;;;;;16.00;56.10;151673.25;1668849;84;21906;-62
2022/10/04 09:46:00;;;;;;;5.53;1.40;;;;;;;16.07;54.49;151690.19;1670514;84;21521;-62
2022/10/04 09:48:44;;;;;;;5.72;1.52;;;;;;;16.05;54.13;151686.28;1668860;83;21064;-61
2022/10/04 09:51:52;;;;;;;4.70;1.67;;;;;;;16.06;53.92;151688.88;1663249;84;21361;-62
2022/10/04 09:54:53;;;;;;;6.20;1.20;;;;;;;16.12;53.74;151704.48;1672237;83;21072;-62
2022/10/04 09:58:04;;;;;;;4.70;1.62;;;;;;;16.18;51.96;151718.84;1669893;84;21940;-60
2022/10/04 10:00:39;;;;;;;3.98;1.67;;;;;;;16.18;52.03;151720.16;1672900;84;20975;-60
2022/10/04 10:03:40;;;;;;;2.80;1.80;;;;;;;16.24;52.28;151733.17;1678555;84;21542;-61
2022/10/04 10:06:24;;;;;;;2.42;1.15;;;;;;;16.30;51.73;151748.80;1633234;84;21135;-60
2022/10/04 10:09:17;;;;;;;6.20;1.20;;;;;;;16.31;50.27;151752.72;1676101;84;21134;-60
2022/10/04 10:14:58;;;;;;;5.25;1.95;;;;;;;16.41;49.37;151776.16;1649182;84;21047;-61
2022/10/04 10:17:52;;;;;;;4.70;1.95;;;;;;;16.42;49.39;151778.77;1657660;84;21157;-61
2022/10/04 10:20:53;;;;;;;3.92;1.30;;;;;;;16.35;49.95;151760.53;1665539;84;21405;-60
2022/10/04 10:23:46;;;;;;;3.25;1.50;;;;;;;16.32;49.87;151755.33;1674925;84;21132;-61
2022/10/04 10:26:41;;;;;;;3.17;1.22;;;;;;;16.41;49.93;151776.16;1660845;84;21248;-60
2022/10/04 10:29:40;;;;;;;4.90;1.57;;;;;;;16.41;49.81;151777.48;1669104;84;21103;-60
2022/10/04 10:32:16;;;;;;;3.10;1.37;;;;;;;16.37;48.72;151765.75;1662465;84;21088;-62
2022/10/04 10:35:25;;;;;;;4.80;1.52;;;;;;;16.25;48.58;151737.11;1669497;83;20927;-61
2022/10/04 10:38:07;;;;;;;4.65;1.60;;;;;;;16.22;49.25;151729.25;1672847;84;21393;-60
2022/10/04 10:40:49;;;;;;;5.47;1.65;;;;;;;16.25;50.37;151737.11;1666307;84;21529;-59
2022/10/04 10:43:26;;;;;;;8.35;1.67;;;;;;;16.31;50.96;151752.72;1618000;85;21096;-61
2022/10/04 10:46:18;;;;;;;3.42;1.57;;;;;;;16.43;50.95;151782.69;1672573;83;21034;-60
2022/10/04 10:49:06;;;;;;;5.50;1.60;;;;;;;16.52;50.48;151804.84;1666894;84;21077;-60
2022/10/04 10:52:05;;;;;;;3.12;1.47;;;;;;;16.58;50.27;151820.47;1658689;84;21058;-61
2022/10/04 10:54:48;;;;;;;3.17;1.60;;;;;;;16.67;49.75;151841.31;1640425;85;22756;-59
2022/10/04 10:57:55;;;;;;;5.15;1.70;;;;;;;16.68;49.68;151845.23;1686018;84;21069;-61
2022/10/04 11:01:01;;;;;;;3.10;1.52;;;;;;;16.63;49.66;151830.89;1670936;84;21097;-60
2022/10/04 11:03:54;;;;;;;2.27;1.80;;;;;;;16.58;50.11;151820.47;1672395;84;21404;-60
2022/10/04 11:06:58;;;;;;;4.70;1.70;;;;;;;16.58;50.60;151820.47;1672714;82;21200;-60
2022/10/04 11:09:50;;;;;;;4.85;1.62;;;;;;;16.61;51.20;151828.28;1674724;82;21878;-59
2022/10/04 11:12:34;;;;;;;17.27;1.65;;;;;;;16.63;51.66;151830.89;1674612;84;21100;-62
2022/10/04 11:15:33;;;;;;;2.30;1.67;;;;;;;16.69;51.57;151846.52;1680208;82;21127;-61
2022/10/04 11:18:23;;;;;;;2.72;1.65;;;;;;;16.73;51.53;151856.98;1671078;84;21125;-61
2022/10/04 11:21:41;;;;;;;2.67;1.90;;;;;;;16.74;51.97;151859.58;1673960;84;21350;-73
2022/10/04 11:24:29;;;;;;;3.77;1.60;;;;;;;16.76;52.15;151866.06;1642869;85;22706;-61
2022/10/04 11:27:23;;;;;;;3.45;1.65;;;;;;;16.80;52.12;151875.22;1668267;84;21113;-60
2022/10/04 11:30:23;;;;;;;2.80;1.37;;;;;;;16.84;51.13;151885.62;1671028;84;21127;-62
2022/10/04 11:33:30;;;;;;;5.90;1.60;;;;;;;16.87;50.82;151892.16;1680083;82;20980;-61
2022/10/04 11:36:51;;;;;;;3.92;1.70;;;;;;;16.92;50.63;151903.91;1722289;82;21554;-62
2022/10/04 11:39:44;;;;;;;6.65;1.75;;;;;;;16.95;49.63;151913.00;1730594;80;21732;-62
2022/10/04 11:42:50;;;;;;;2.77;1.62;;;;;;;16.97;48.10;151916.94;1735266;82;21122;-63
2022/10/04 11:46:00;;;;;;;1.90;1.70;;;;;;;16.94;47.52;151909.13;1721928;82;21057;-79
2022/10/04 11:49:16;;;;;;;2.55;1.60;;;;;;;16.94;48.25;151909.13;1714229;82;21076;-77
2022/10/04 11:52:21;;;;;;;5.05;1.50;;;;;;;16.94;48.99;151910.41;1720917;80;21118;-61
2022/10/04 11:55:12;;;;;;;6.95;1.92;;;;;;;16.92;49.03;151903.91;1715151;82;22065;-78
2022/10/04 11:57:56;;;;;;;3.72;1.40;;;;;;;16.90;48.76;151901.25;1720273;82;21041;-77
2022/10/04 12:00:26;;;;;;;2.77;1.63;;;;;;;16.92;48.79;151903.91;1717144;82;21097;-62
2022/10/04 12:03:26;;;;;;;3.55;1.70;;;;;;;16.98;48.92;151919.53;1723340;82;21055;-61
2022/10/04 12:06:23;;;;;;;5.60;1.77;;;;;;;17.06;48.94;151940.42;1716945;82;21120;-61
2022/10/04 12:09:20;;;;;;;4.62;1.95;;;;;;;17.13;49.28;151958.70;1682547;80;21062;-60
2022/10/04 12:15:37;;;;;;;5.75;1.70;;;;;;;17.18;49.19;151971.73;1725958;82;21311;-60
2022/10/04 12:18:45;;;;;;;2.67;1.90;;;;;;;17.21;48.56;151976.94;1722745;82;21471;-61
2022/10/04 12:22:00;;;;;;;2.85;1.77;;;;;;;17.18;48.79;151971.73;1731481;82;21028;-61
2022/10/04 12:24:59;;;;;;;2.50;2.00;;;;;;;17.23;48.21;151982.16;1718754;80;22002;-60
2022/10/04 12:28:06;;;;;;;6.55;1.77;;;;;;;17.23;48.08;151983.44;1716534;82;21106;-65
2022/10/04 12:31:03;;;;;;;5.75;1.77;;;;;;;17.26;47.46;151991.30;1716523;81;20970;-64
2022/10/04 12:33:36;;;;;;;8.55;3.00;;;;;;;17.33;47.40;152008.20;1720828;82;21040;-62
2022/10/04 12:36:12;;;;;;;3.65;2.00;;;;;;;17.39;47.59;152022.56;1720953;81;21072;-62
2022/10/04 12:39:00;;;;;;;5.92;2.15;;;;;;;17.44;47.57;152036.91;1710606;82;21934;-61
2022/10/04 12:41:32;;;;;;;4.65;1.82;;;;;;;17.46;47.42;152042.12;1711074;82;22673;-60
2022/10/04 12:44:40;;;;;;;4.97;1.80;;;;;;;17.47;46.17;152044.72;1706978;81;21029;-61
2022/10/04 12:47:35;;;;;;;5.22;1.70;;;;;;;17.54;45.95;152060.36;1677350;84;21096;-62
2022/10/04 12:50:26;;;;;;;3.02;2.00;;;;;;;17.62;44.58;152081.25;1641975;86;21060;-62
2022/10/04 12:53:17;;;;;;;4.67;1.87;;;;;;;17.66;44.58;152091.69;1659228;84;21202;-61
2022/10/04 12:56:02;;;;;;;7.78;1.90;;;;;;;17.60;44.53;152077.31;1674702;84;21137;-61
2022/10/04 12:58:54;;;;;;;1.77;1.50;;;;;;;17.55;45.02;152062.97;1673641;84;21520;-61
2022/10/04 13:01:33;;;;;;;7.58;1.80;;;;;;;17.49;44.31;152048.66;1671373;83;21498;-59